sensor_id;sensor_type;location;lat;lon;timestamp;P1;durP1;ratioP1;P2;durP2;ratioP2
29954;SDS011;16812;51.168;6.840;2022-08-21T00:00:35;13.13;;;9.27;;
29954;SDS011;16812;51.168;6.840;2022-08-21T00:03:09;14.33;;;8.63;;
29954;SDS011;16812;51.168;6.840;2022-08-21T00:05:39;13.27;;;9.30;;
29954;SDS011;16812;51.168;6.840;2022-08-21T00:08:06;17.90;;;10.57;;
29954;SDS011;16812;51.168;6.840;2022-08-21T00:10:34;19.40;;;15.00;;
29954;SDS011;16812;51.168;6.840;2022-08-21T00:13:01;15.47;;;10.00;;
29954;SDS011;16812;51.168;6.840;2022-08-21T00:15:30;13.83;;;9.53;;
29954;SDS011;16812;51.168;6.840;2022-08-21T00:17:57;12.77;;;9.37;;
29954;SDS011;16812;51.168;6.840;2022-08-21T00:20:25;16.13;;;10.60;;
29954;SDS011;16812;51.168;6.840;2022-08-21T00:22:53;18.27;;;10.80;;
29954;SDS011;16812;51.168;6.840;2022-08-21T00:25:23;21.40;;;11.40;;
29954;SDS011;16812;51.168;6.840;2022-08-21T00:27:51;17.30;;;11.03;;
29954;SDS011;16812;51.168;6.840;2022-08-21T00:30:19;21.07;;;11.43;;
29954;SDS011;16812;51.168;6.840;2022-08-21T00:32:48;19.07;;;12.13;;
29954;SDS011;16812;51.168;6.840;2022-08-21T00:35:19;17.13;;;11.20;;
29954;SDS011;16812;51.168;6.840;2022-08-21T00:37:46;16.13;;;10.80;;
29954;SDS011;16812;51.168;6.840;2022-08-21T00:40:16;16.13;;;11.00;;
29954;SDS011;16812;51.168;6.840;2022-08-21T00:42:44;20.70;;;11.30;;
29954;SDS011;16812;51.168;6.840;2022-08-21T00:45:19;16.93;;;11.93;;
29954;SDS011;16812;51.168;6.840;2022-08-21T00:47:46;18.57;;;11.70;;
29954;SDS011;16812;51.168;6.840;2022-08-21T00:50:13;21.43;;;12.83;;
29954;SDS011;16812;51.168;6.840;2022-08-21T00:52:47;21.30;;;11.37;;
29954;SDS011;16812;51.168;6.840;2022-08-21T00:55:16;16.97;;;12.17;;
29954;SDS011;16812;51.168;6.840;2022-08-21T00:57:45;19.73;;;12.40;;
29954;SDS011;16812;51.168;6.840;2022-08-21T01:00:17;21.60;;;13.33;;
29954;SDS011;16812;51.168;6.840;2022-08-21T01:02:45;19.97;;;12.33;;
29954;SDS011;16812;51.168;6.840;2022-08-21T01:05:12;18.80;;;11.00;;
29954;SDS011;16812;51.168;6.840;2022-08-21T01:07:40;23.73;;;12.60;;
29954;SDS011;16812;51.168;6.840;2022-08-21T01:10:08;18.13;;;12.73;;
29954;SDS011;16812;51.168;6.840;2022-08-21T01:12:47;20.80;;;13.40;;
29954;SDS011;16812;51.168;6.840;2022-08-21T01:15:14;29.80;;;12.77;;
29954;SDS011;16812;51.168;6.840;2022-08-21T01:17:41;13.67;;;12.13;;
29954;SDS011;16812;51.168;6.840;2022-08-21T01:20:09;23.07;;;13.07;;
29954;SDS011;16812;51.168;6.840;2022-08-21T01:22:39;21.23;;;13.10;;
29954;SDS011;16812;51.168;6.840;2022-08-21T01:25:09;17.50;;;12.20;;
29954;SDS011;16812;51.168;6.840;2022-08-21T01:27:38;28.00;;;14.50;;
29954;SDS011;16812;51.168;6.840;2022-08-21T01:30:08;19.83;;;12.27;;
29954;SDS011;16812;51.168;6.840;2022-08-21T01:32:35;19.03;;;13.03;;
29954;SDS011;16812;51.168;6.840;2022-08-21T01:35:04;19.17;;;13.03;;
29954;SDS011;16812;51.168;6.840;2022-08-21T01:37:32;21.17;;;13.60;;
29954;SDS011;16812;51.168;6.840;2022-08-21T01:40:01;19.70;;;14.17;;
29954;SDS011;16812;51.168;6.840;2022-08-21T01:42:30;20.77;;;13.80;;
29954;SDS011;16812;51.168;6.840;2022-08-21T01:44:58;31.83;;;15.57;;
29954;SDS011;16812;51.168;6.840;2022-08-21T01:47:25;20.53;;;12.80;;
29954;SDS011;16812;51.168;6.840;2022-08-21T01:49:52;17.10;;;13.10;;
29954;SDS011;16812;51.168;6.840;2022-08-21T01:52:19;18.73;;;13.83;;
29954;SDS011;16812;51.168;6.840;2022-08-21T01:54:47;27.63;;;14.10;;
29954;SDS011;16812;51.168;6.840;2022-08-21T01:57:22;22.57;;;14.10;;
29954;SDS011;16812;51.168;6.840;2022-08-21T01:59:51;24.10;;;14.47;;
29954;SDS011;16812;51.168;6.840;2022-08-21T02:02:19;30.80;;;15.87;;
29954;SDS011;16812;51.168;6.840;2022-08-21T02:04:46;24.43;;;14.70;;
29954;SDS011;16812;51.168;6.840;2022-08-21T02:07:13;20.43;;;13.93;;
29954;SDS011;16812;51.168;6.840;2022-08-21T02:09:40;22.50;;;13.97;;
29954;SDS011;16812;51.168;6.840;2022-08-21T02:12:08;19.10;;;13.60;;
29954;SDS011;16812;51.168;6.840;2022-08-21T02:14:36;22.07;;;14.03;;
29954;SDS011;16812;51.168;6.840;2022-08-21T02:17:04;20.13;;;13.73;;
29954;SDS011;16812;51.168;6.840;2022-08-21T02:19:35;20.63;;;14.10;;
29954;SDS011;16812;51.168;6.840;2022-08-21T02:22:05;22.23;;;15.17;;
29954;SDS011;16812;51.168;6.840;2022-08-21T02:24:33;17.63;;;13.00;;
29954;SDS011;16812;51.168;6.840;2022-08-21T02:27:00;23.77;;;15.07;;
29954;SDS011;16812;51.168;6.840;2022-08-21T02:29:27;24.80;;;14.40;;
29954;SDS011;16812;51.168;6.840;2022-08-21T02:31:56;20.83;;;15.53;;
29954;SDS011;16812;51.168;6.840;2022-08-21T02:34:23;25.60;;;16.13;;
29954;SDS011;16812;51.168;6.840;2022-08-21T02:36:54;25.57;;;15.87;;
29954;SDS011;16812;51.168;6.840;2022-08-21T02:39:25;26.87;;;16.50;;
29954;SDS011;16812;51.168;6.840;2022-08-21T02:41:53;23.90;;;16.43;;
29954;SDS011;16812;51.168;6.840;2022-08-21T02:44:20;26.60;;;15.50;;
29954;SDS011;16812;51.168;6.840;2022-08-21T02:47:01;26.77;;;15.40;;
29954;SDS011;16812;51.168;6.840;2022-08-21T02:49:28;24.30;;;15.43;;
29954;SDS011;16812;51.168;6.840;2022-08-21T02:51:55;23.93;;;15.13;;
29954;SDS011;16812;51.168;6.840;2022-08-21T02:54:22;26.73;;;14.70;;
29954;SDS011;16812;51.168;6.840;2022-08-21T02:56:49;25.07;;;15.37;;
29954;SDS011;16812;51.168;6.840;2022-08-21T02:59:17;22.77;;;15.60;;
29954;SDS011;16812;51.168;6.840;2022-08-21T03:01:44;22.47;;;15.17;;
29954;SDS011;16812;51.168;6.840;2022-08-21T03:04:12;25.37;;;15.60;;
29954;SDS011;16812;51.168;6.840;2022-08-21T03:06:40;28.27;;;15.10;;
29954;SDS011;16812;51.168;6.840;2022-08-21T03:09:07;23.63;;;15.20;;
29954;SDS011;16812;51.168;6.840;2022-08-21T03:11:34;30.23;;;15.77;;
29954;SDS011;16812;51.168;6.840;2022-08-21T03:14:01;26.77;;;17.20;;
29954;SDS011;16812;51.168;6.840;2022-08-21T03:16:28;24.27;;;14.77;;
29954;SDS011;16812;51.168;6.840;2022-08-21T03:19:00;29.83;;;16.03;;
29954;SDS011;16812;51.168;6.840;2022-08-21T03:21:29;26.80;;;15.10;;
29954;SDS011;16812;51.168;6.840;2022-08-21T03:23:56;24.53;;;14.30;;
29954;SDS011;16812;51.168;6.840;2022-08-21T03:26:24;31.73;;;17.13;;
29954;SDS011;16812;51.168;6.840;2022-08-21T03:28:53;22.50;;;14.23;;
29954;SDS011;16812;51.168;6.840;2022-08-21T03:31:20;21.40;;;15.57;;
29954;SDS011;16812;51.168;6.840;2022-08-21T03:33:47;20.03;;;14.77;;
29954;SDS011;16812;51.168;6.840;2022-08-21T03:36:15;28.97;;;14.83;;
29954;SDS011;16812;51.168;6.840;2022-08-21T03:38:44;21.73;;;14.17;;
29954;SDS011;16812;51.168;6.840;2022-08-21T03:41:11;18.70;;;14.20;;
29954;SDS011;16812;51.168;6.840;2022-08-21T03:43:38;21.40;;;13.70;;
29954;SDS011;16812;51.168;6.840;2022-08-21T03:46:06;23.57;;;14.80;;
29954;SDS011;16812;51.168;6.840;2022-08-21T03:48:35;25.23;;;14.67;;
29954;SDS011;16812;51.168;6.840;2022-08-21T03:51:02;21.40;;;14.43;;
29954;SDS011;16812;51.168;6.840;2022-08-21T03:53:30;20.83;;;14.37;;
29954;SDS011;16812;51.168;6.840;2022-08-21T03:55:58;26.60;;;14.60;;
29954;SDS011;16812;51.168;6.840;2022-08-21T03:58:26;24.30;;;14.03;;
29954;SDS011;16812;51.168;6.840;2022-08-21T04:00:55;22.90;;;14.10;;
29954;SDS011;16812;51.168;6.840;2022-08-21T04:03:23;23.83;;;15.83;;
29954;SDS011;16812;51.168;6.840;2022-08-21T04:05:52;27.17;;;15.97;;
29954;SDS011;16812;51.168;6.840;2022-08-21T04:08:19;24.10;;;16.37;;
29954;SDS011;16812;51.168;6.840;2022-08-21T04:10:47;20.30;;;13.90;;
29954;SDS011;16812;51.168;6.840;2022-08-21T04:13:16;22.70;;;15.83;;
29954;SDS011;16812;51.168;6.840;2022-08-21T04:15:44;27.43;;;14.63;;
29954;SDS011;16812;51.168;6.840;2022-08-21T04:18:11;23.70;;;13.70;;
29954;SDS011;16812;51.168;6.840;2022-08-21T04:20:39;25.47;;;15.67;;
29954;SDS011;16812;51.168;6.840;2022-08-21T04:23:10;26.40;;;15.33;;
29954;SDS011;16812;51.168;6.840;2022-08-21T04:25:49;29.43;;;15.20;;
29954;SDS011;16812;51.168;6.840;2022-08-21T04:28:18;23.10;;;15.30;;
29954;SDS011;16812;51.168;6.840;2022-08-21T04:30:45;23.83;;;13.63;;
29954;SDS011;16812;51.168;6.840;2022-08-21T04:33:12;25.00;;;15.80;;
29954;SDS011;16812;51.168;6.840;2022-08-21T04:35:40;25.80;;;15.93;;
29954;SDS011;16812;51.168;6.840;2022-08-21T04:38:07;21.73;;;14.77;;
29954;SDS011;16812;51.168;6.840;2022-08-21T04:40:34;26.80;;;15.40;;
29954;SDS011;16812;51.168;6.840;2022-08-21T04:43:03;23.60;;;17.07;;
29954;SDS011;16812;51.168;6.840;2022-08-21T04:45:33;26.37;;;16.97;;
29954;SDS011;16812;51.168;6.840;2022-08-21T04:48:01;27.57;;;17.50;;
29954;SDS011;16812;51.168;6.840;2022-08-21T04:50:29;31.73;;;17.87;;
29954;SDS011;16812;51.168;6.840;2022-08-21T04:53:07;25.83;;;16.17;;
29954;SDS011;16812;51.168;6.840;2022-08-21T04:55:35;24.17;;;15.87;;
29954;SDS011;16812;51.168;6.840;2022-08-21T04:58:03;25.07;;;16.87;;
29954;SDS011;16812;51.168;6.840;2022-08-21T05:00:32;21.53;;;14.40;;
29954;SDS011;16812;51.168;6.840;2022-08-21T05:02:59;21.37;;;14.73;;
29954;SDS011;16812;51.168;6.840;2022-08-21T05:05:28;23.73;;;14.00;;
29954;SDS011;16812;51.168;6.840;2022-08-21T05:07:55;21.90;;;14.27;;
29954;SDS011;16812;51.168;6.840;2022-08-21T05:10:23;21.40;;;13.70;;
29954;SDS011;16812;51.168;6.840;2022-08-21T05:12:50;21.73;;;12.67;;
29954;SDS011;16812;51.168;6.840;2022-08-21T05:15:17;23.10;;;13.60;;
29954;SDS011;16812;51.168;6.840;2022-08-21T05:17:46;17.30;;;13.00;;
29954;SDS011;16812;51.168;6.840;2022-08-21T05:20:20;21.43;;;14.90;;
29954;SDS011;16812;51.168;6.840;2022-08-21T05:22:47;19.13;;;12.53;;
29954;SDS011;16812;51.168;6.840;2022-08-21T05:25:15;18.33;;;12.10;;
29954;SDS011;16812;51.168;6.840;2022-08-21T05:27:47;18.83;;;11.97;;
29954;SDS011;16812;51.168;6.840;2022-08-21T05:30:17;21.50;;;13.87;;
29954;SDS011;16812;51.168;6.840;2022-08-21T05:32:46;26.00;;;12.50;;
29954;SDS011;16812;51.168;6.840;2022-08-21T05:35:14;16.00;;;12.17;;
29954;SDS011;16812;51.168;6.840;2022-08-21T05:37:41;18.87;;;11.53;;
29954;SDS011;16812;51.168;6.840;2022-08-21T05:40:09;19.80;;;12.13;;
29954;SDS011;16812;51.168;6.840;2022-08-21T05:42:48;21.43;;;12.30;;
29954;SDS011;16812;51.168;6.840;2022-08-21T05:45:22;17.37;;;11.50;;
29954;SDS011;16812;51.168;6.840;2022-08-21T05:48:11;19.33;;;12.20;;
29954;SDS011;16812;51.168;6.840;2022-08-21T05:50:38;15.03;;;10.77;;
29954;SDS011;16812;51.168;6.840;2022-08-21T05:53:05;15.93;;;11.80;;
29954;SDS011;16812;51.168;6.840;2022-08-21T05:55:33;26.40;;;12.60;;
29954;SDS011;16812;51.168;6.840;2022-08-21T05:58:07;15.00;;;11.70;;
29954;SDS011;16812;51.168;6.840;2022-08-21T06:00:34;16.10;;;11.70;;
29954;SDS011;16812;51.168;6.840;2022-08-21T06:03:01;13.50;;;10.47;;
29954;SDS011;16812;51.168;6.840;2022-08-21T06:05:30;11.37;;;10.17;;
29954;SDS011;16812;51.168;6.840;2022-08-21T06:08:04;16.93;;;11.47;;
29954;SDS011;16812;51.168;6.840;2022-08-21T06:10:31;15.67;;;10.60;;
29954;SDS011;16812;51.168;6.840;2022-08-21T06:12:58;17.30;;;10.60;;
29954;SDS011;16812;51.168;6.840;2022-08-21T06:15:26;13.27;;;10.17;;
29954;SDS011;16812;51.168;6.840;2022-08-21T06:17:53;12.87;;;9.83;;
29954;SDS011;16812;51.168;6.840;2022-08-21T06:20:20;18.30;;;9.70;;
29954;SDS011;16812;51.168;6.840;2022-08-21T06:22:49;13.17;;;9.33;;
29954;SDS011;16812;51.168;6.840;2022-08-21T06:25:16;15.50;;;10.43;;
29954;SDS011;16812;51.168;6.840;2022-08-21T06:27:43;13.27;;;9.90;;
29954;SDS011;16812;51.168;6.840;2022-08-21T06:30:11;15.43;;;10.17;;
29954;SDS011;16812;51.168;6.840;2022-08-21T06:32:38;14.10;;;9.40;;
29954;SDS011;16812;51.168;6.840;2022-08-21T06:35:06;13.20;;;9.03;;
29954;SDS011;16812;51.168;6.840;2022-08-21T06:37:33;15.13;;;9.73;;
29954;SDS011;16812;51.168;6.840;2022-08-21T06:40:02;11.00;;;7.90;;
29954;SDS011;16812;51.168;6.840;2022-08-21T06:42:30;13.73;;;7.57;;
29954;SDS011;16812;51.168;6.840;2022-08-21T06:44:57;14.67;;;7.07;;
29954;SDS011;16812;51.168;6.840;2022-08-21T06:47:25;14.37;;;7.27;;
29954;SDS011;16812;51.168;6.840;2022-08-21T06:49:52;12.90;;;7.07;;
29954;SDS011;16812;51.168;6.840;2022-08-21T06:52:19;11.73;;;8.40;;
29954;SDS011;16812;51.168;6.840;2022-08-21T06:54:46;10.93;;;6.90;;
29954;SDS011;16812;51.168;6.840;2022-08-21T06:57:15;11.73;;;6.60;;
29954;SDS011;16812;51.168;6.840;2022-08-21T06:59:42;11.20;;;7.17;;
29954;SDS011;16812;51.168;6.840;2022-08-21T07:02:09;12.90;;;6.93;;
29954;SDS011;16812;51.168;6.840;2022-08-21T07:04:36;16.33;;;6.43;;
29954;SDS011;16812;51.168;6.840;2022-08-21T07:07:04;14.63;;;6.33;;
29954;SDS011;16812;51.168;6.840;2022-08-21T07:09:31;9.00;;;5.73;;
29954;SDS011;16812;51.168;6.840;2022-08-21T07:11:59;9.57;;;5.80;;
29954;SDS011;16812;51.168;6.840;2022-08-21T07:14:28;11.40;;;5.40;;
29954;SDS011;16812;51.168;6.840;2022-08-21T07:16:55;7.93;;;4.20;;
29954;SDS011;16812;51.168;6.840;2022-08-21T07:19:22;9.03;;;4.93;;
29954;SDS011;16812;51.168;6.840;2022-08-21T07:21:49;15.67;;;5.47;;
29954;SDS011;16812;51.168;6.840;2022-08-21T07:24:17;12.80;;;4.60;;
29954;SDS011;16812;51.168;6.840;2022-08-21T07:26:44;10.53;;;5.60;;
29954;SDS011;16812;51.168;6.840;2022-08-21T07:29:11;14.97;;;5.70;;
29954;SDS011;16812;51.168;6.840;2022-08-21T07:31:39;11.77;;;6.30;;
29954;SDS011;16812;51.168;6.840;2022-08-21T07:34:07;9.23;;;5.30;;
29954;SDS011;16812;51.168;6.840;2022-08-21T07:36:34;13.23;;;5.87;;
29954;SDS011;16812;51.168;6.840;2022-08-21T07:39:01;10.40;;;4.77;;
29954;SDS011;16812;51.168;6.840;2022-08-21T07:41:29;7.67;;;4.33;;
29954;SDS011;16812;51.168;6.840;2022-08-21T07:43:56;7.40;;;4.13;;
29954;SDS011;16812;51.168;6.840;2022-08-21T07:46:23;5.80;;;3.80;;
29954;SDS011;16812;51.168;6.840;2022-08-21T07:48:52;11.73;;;4.40;;
29954;SDS011;16812;51.168;6.840;2022-08-21T07:51:20;8.30;;;3.93;;
29954;SDS011;16812;51.168;6.840;2022-08-21T07:53:48;9.27;;;3.60;;
29954;SDS011;16812;51.168;6.840;2022-08-21T07:56:16;8.30;;;3.80;;
29954;SDS011;16812;51.168;6.840;2022-08-21T07:58:43;8.53;;;3.60;;
29954;SDS011;16812;51.168;6.840;2022-08-21T08:01:10;7.53;;;3.70;;
29954;SDS011;16812;51.168;6.840;2022-08-21T08:03:37;8.60;;;3.47;;
29954;SDS011;16812;51.168;6.840;2022-08-21T08:06:06;13.27;;;3.83;;
29954;SDS011;16812;51.168;6.840;2022-08-21T08:08:34;6.87;;;3.40;;
29954;SDS011;16812;51.168;6.840;2022-08-21T08:11:01;7.63;;;3.20;;
29954;SDS011;16812;51.168;6.840;2022-08-21T08:13:28;7.55;;;3.28;;
29954;SDS011;16812;51.168;6.840;2022-08-21T08:15:56;7.45;;;2.80;;
29954;SDS011;16812;51.168;6.840;2022-08-21T08:18:23;3.03;;;2.33;;
29954;SDS011;16812;51.168;6.840;2022-08-21T08:20:50;8.65;;;3.45;;
29954;SDS011;16812;51.168;6.840;2022-08-21T08:23:19;10.88;;;3.58;;
29954;SDS011;16812;51.168;6.840;2022-08-21T08:25:46;6.07;;;2.45;;
29954;SDS011;16812;51.168;6.840;2022-08-21T08:28:13;4.00;;;2.38;;
29954;SDS011;16812;51.168;6.840;2022-08-21T08:30:43;6.47;;;2.20;;
29954;SDS011;16812;51.168;6.840;2022-08-21T08:33:11;4.72;;;2.47;;
29954;SDS011;16812;51.168;6.840;2022-08-21T08:35:39;5.90;;;2.50;;
29954;SDS011;16812;51.168;6.840;2022-08-21T08:38:06;4.38;;;1.90;;
29954;SDS011;16812;51.168;6.840;2022-08-21T08:40:36;2.67;;;1.98;;
29954;SDS011;16812;51.168;6.840;2022-08-21T08:43:08;5.43;;;2.17;;
29954;SDS011;16812;51.168;6.840;2022-08-21T08:45:40;2.25;;;1.70;;
29954;SDS011;16812;51.168;6.840;2022-08-21T08:48:09;3.88;;;2.28;;
29954;SDS011;16812;51.168;6.840;2022-08-21T08:50:40;5.50;;;2.70;;
29954;SDS011;16812;51.168;6.840;2022-08-21T08:53:10;3.35;;;2.05;;
29954;SDS011;16812;51.168;6.840;2022-08-21T08:55:40;6.97;;;2.47;;
29954;SDS011;16812;51.168;6.840;2022-08-21T08:58:08;6.45;;;1.90;;
29954;SDS011;16812;51.168;6.840;2022-08-21T09:00:37;5.70;;;2.08;;
29954;SDS011;16812;51.168;6.840;2022-08-21T09:03:04;3.22;;;1.65;;
29954;SDS011;16812;51.168;6.840;2022-08-21T09:05:39;4.22;;;2.17;;
29954;SDS011;16812;51.168;6.840;2022-08-21T09:08:18;4.75;;;1.73;;
29954;SDS011;16812;51.168;6.840;2022-08-21T09:10:51;3.35;;;2.05;;
29954;SDS011;16812;51.168;6.840;2022-08-21T09:13:24;2.65;;;1.40;;
29954;SDS011;16812;51.168;6.840;2022-08-21T09:15:57;7.95;;;2.15;;
29954;SDS011;16812;51.168;6.840;2022-08-21T09:18:30;4.07;;;1.85;;
29954;SDS011;16812;51.168;6.840;2022-08-21T09:21:02;3.70;;;1.60;;
29954;SDS011;16812;51.168;6.840;2022-08-21T09:23:35;5.38;;;2.47;;
29954;SDS011;16812;51.168;6.840;2022-08-21T09:26:13;4.13;;;1.65;;
29954;SDS011;16812;51.168;6.840;2022-08-21T09:28:40;3.05;;;1.92;;
29954;SDS011;16812;51.168;6.840;2022-08-21T09:31:08;5.22;;;1.80;;
29954;SDS011;16812;51.168;6.840;2022-08-21T09:33:38;2.60;;;1.67;;
29954;SDS011;16812;51.168;6.840;2022-08-21T09:36:05;3.65;;;1.90;;
29954;SDS011;16812;51.168;6.840;2022-08-21T09:38:34;3.80;;;1.92;;
29954;SDS011;16812;51.168;6.840;2022-08-21T09:41:04;5.05;;;1.70;;
29954;SDS011;16812;51.168;6.840;2022-08-21T09:43:33;4.72;;;1.48;;
29954;SDS011;16812;51.168;6.840;2022-08-21T09:46:02;4.28;;;1.90;;
29954;SDS011;16812;51.168;6.840;2022-08-21T09:48:30;5.70;;;2.10;;
29954;SDS011;16812;51.168;6.840;2022-08-21T09:51:05;3.67;;;2.10;;
29954;SDS011;16812;51.168;6.840;2022-08-21T09:53:33;5.00;;;1.77;;
29954;SDS011;16812;51.168;6.840;2022-08-21T09:56:03;3.67;;;1.80;;
29954;SDS011;16812;51.168;6.840;2022-08-21T09:58:33;3.75;;;1.90;;
29954;SDS011;16812;51.168;6.840;2022-08-21T10:01:02;4.35;;;1.70;;
29954;SDS011;16812;51.168;6.840;2022-08-21T10:03:30;2.33;;;1.70;;
29954;SDS011;16812;51.168;6.840;2022-08-21T10:05:59;7.53;;;2.28;;
29954;SDS011;16812;51.168;6.840;2022-08-21T10:08:28;4.10;;;2.45;;
29954;SDS011;16812;51.168;6.840;2022-08-21T10:10:57;3.28;;;1.95;;
29954;SDS011;16812;51.168;6.840;2022-08-21T10:13:30;5.60;;;2.10;;
29954;SDS011;16812;51.168;6.840;2022-08-21T10:16:05;2.22;;;1.85;;
29954;SDS011;16812;51.168;6.840;2022-08-21T10:18:35;9.38;;;2.25;;
29954;SDS011;16812;51.168;6.840;2022-08-21T10:21:04;4.43;;;2.00;;
29954;SDS011;16812;51.168;6.840;2022-08-21T10:23:40;4.18;;;1.77;;
29954;SDS011;16812;51.168;6.840;2022-08-21T10:26:16;2.15;;;1.88;;
29954;SDS011;16812;51.168;6.840;2022-08-21T10:28:47;2.85;;;1.88;;
29954;SDS011;16812;51.168;6.840;2022-08-21T10:31:21;5.30;;;1.95;;
29954;SDS011;16812;51.168;6.840;2022-08-21T10:33:54;4.40;;;2.05;;
29954;SDS011;16812;51.168;6.840;2022-08-21T10:36:27;3.53;;;1.90;;
29954;SDS011;16812;51.168;6.840;2022-08-21T10:39:01;7.45;;;2.13;;
29954;SDS011;16812;51.168;6.840;2022-08-21T10:42:00;6.07;;;1.80;;
29954;SDS011;16812;51.168;6.840;2022-08-21T10:44:30;4.28;;;1.83;;
29954;SDS011;16812;51.168;6.840;2022-08-21T10:47:00;4.63;;;1.52;;
29954;SDS011;16812;51.168;6.840;2022-08-21T10:49:31;6.05;;;1.85;;
29954;SDS011;16812;51.168;6.840;2022-08-21T10:52:09;7.38;;;2.50;;
29954;SDS011;16812;51.168;6.840;2022-08-21T10:54:41;5.82;;;2.30;;
29954;SDS011;16812;51.168;6.840;2022-08-21T10:57:16;3.15;;;1.60;;
29954;SDS011;16812;51.168;6.840;2022-08-21T10:59:59;4.90;;;2.30;;
29954;SDS011;16812;51.168;6.840;2022-08-21T11:02:30;4.15;;;2.00;;
29954;SDS011;16812;51.168;6.840;2022-08-21T11:04:59;2.35;;;1.75;;
29954;SDS011;16812;51.168;6.840;2022-08-21T11:07:30;5.20;;;2.22;;
29954;SDS011;16812;51.168;6.840;2022-08-21T11:10:03;3.25;;;1.95;;
29954;SDS011;16812;51.168;6.840;2022-08-21T11:12:33;4.22;;;1.65;;
29954;SDS011;16812;51.168;6.840;2022-08-21T11:15:02;7.22;;;1.98;;
29954;SDS011;16812;51.168;6.840;2022-08-21T11:17:34;5.28;;;2.10;;
29954;SDS011;16812;51.168;6.840;2022-08-21T11:20:03;4.28;;;2.45;;
29954;SDS011;16812;51.168;6.840;2022-08-21T11:22:33;5.32;;;1.90;;
29954;SDS011;16812;51.168;6.840;2022-08-21T11:25:03;6.50;;;2.33;;
29954;SDS011;16812;51.168;6.840;2022-08-21T11:27:36;3.20;;;1.85;;
29954;SDS011;16812;51.168;6.840;2022-08-21T11:30:04;6.03;;;2.17;;
29954;SDS011;16812;51.168;6.840;2022-08-21T11:32:39;6.70;;;2.08;;
29954;SDS011;16812;51.168;6.840;2022-08-21T11:35:10;5.65;;;2.10;;
29954;SDS011;16812;51.168;6.840;2022-08-21T11:37:44;3.88;;;2.03;;
29954;SDS011;16812;51.168;6.840;2022-08-21T11:40:15;4.03;;;2.08;;
29954;SDS011;16812;51.168;6.840;2022-08-21T11:42:48;6.20;;;2.08;;
29954;SDS011;16812;51.168;6.840;2022-08-21T11:45:19;4.50;;;1.80;;
29954;SDS011;16812;51.168;6.840;2022-08-21T11:47:58;4.03;;;1.97;;
29954;SDS011;16812;51.168;6.840;2022-08-21T11:50:30;3.70;;;1.90;;
29954;SDS011;16812;51.168;6.840;2022-08-21T11:53:02;4.47;;;2.20;;
29954;SDS011;16812;51.168;6.840;2022-08-21T11:55:32;3.70;;;1.60;;
29954;SDS011;16812;51.168;6.840;2022-08-21T11:58:04;4.43;;;1.80;;
29954;SDS011;16812;51.168;6.840;2022-08-21T12:00:33;5.57;;;1.90;;
29954;SDS011;16812;51.168;6.840;2022-08-21T12:03:07;7.20;;;2.10;;
29954;SDS011;16812;51.168;6.840;2022-08-21T12:05:36;6.57;;;2.50;;
29954;SDS011;16812;51.168;6.840;2022-08-21T12:08:06;3.80;;;1.80;;
29954;SDS011;16812;51.168;6.840;2022-08-21T12:10:35;3.03;;;1.77;;
29954;SDS011;16812;51.168;6.840;2022-08-21T12:13:07;8.00;;;2.40;;
29954;SDS011;16812;51.168;6.840;2022-08-21T12:15:34;2.80;;;1.90;;
29954;SDS011;16812;51.168;6.840;2022-08-21T12:18:03;4.20;;;2.50;;
29954;SDS011;16812;51.168;6.840;2022-08-21T12:20:37;4.47;;;2.03;;
29954;SDS011;16812;51.168;6.840;2022-08-21T12:23:17;5.50;;;2.10;;
29954;SDS011;16812;51.168;6.840;2022-08-21T12:25:46;3.60;;;2.10;;
29954;SDS011;16812;51.168;6.840;2022-08-21T12:28:16;6.00;;;2.17;;
29954;SDS011;16812;51.168;6.840;2022-08-21T12:30:48;6.07;;;2.30;;
29954;SDS011;16812;51.168;6.840;2022-08-21T12:33:21;5.83;;;1.90;;
29954;SDS011;16812;51.168;6.840;2022-08-21T12:35:50;4.20;;;2.00;;
29954;SDS011;16812;51.168;6.840;2022-08-21T12:38:20;3.30;;;1.80;;
29954;SDS011;16812;51.168;6.840;2022-08-21T12:40:48;6.87;;;2.50;;
29954;SDS011;16812;51.168;6.840;2022-08-21T12:43:18;5.93;;;2.10;;
29954;SDS011;16812;51.168;6.840;2022-08-21T12:45:49;10.67;;;2.07;;
29954;SDS011;16812;51.168;6.840;2022-08-21T12:48:18;2.97;;;1.90;;
29954;SDS011;16812;51.168;6.840;2022-08-21T12:50:52;5.37;;;1.80;;
29954;SDS011;16812;51.168;6.840;2022-08-21T12:53:23;6.53;;;2.00;;
29954;SDS011;16812;51.168;6.840;2022-08-21T12:55:52;3.70;;;2.03;;
29954;SDS011;16812;51.168;6.840;2022-08-21T12:58:19;4.13;;;1.73;;
29954;SDS011;16812;51.168;6.840;2022-08-21T13:00:48;3.70;;;1.70;;
29954;SDS011;16812;51.168;6.840;2022-08-21T13:03:16;5.43;;;2.17;;
29954;SDS011;16812;51.168;6.840;2022-08-21T13:05:43;4.53;;;2.53;;
29954;SDS011;16812;51.168;6.840;2022-08-21T13:08:12;6.23;;;2.20;;
29954;SDS011;16812;51.168;6.840;2022-08-21T13:10:40;6.73;;;2.17;;
29954;SDS011;16812;51.168;6.840;2022-08-21T13:13:14;7.43;;;1.97;;
29954;SDS011;16812;51.168;6.840;2022-08-21T13:15:56;4.17;;;1.73;;
29954;SDS011;16812;51.168;6.840;2022-08-21T13:18:26;2.77;;;1.77;;
29954;SDS011;16812;51.168;6.840;2022-08-21T13:21:02;3.60;;;2.07;;
29954;SDS011;16812;51.168;6.840;2022-08-21T13:23:31;2.83;;;1.73;;
29954;SDS011;16812;51.168;6.840;2022-08-21T13:25:58;2.53;;;1.70;;
29954;SDS011;16812;51.168;6.840;2022-08-21T13:28:31;2.10;;;1.50;;
29954;SDS011;16812;51.168;6.840;2022-08-21T13:30:59;2.67;;;1.47;;
29954;SDS011;16812;51.168;6.840;2022-08-21T13:33:26;4.40;;;1.60;;
29954;SDS011;16812;51.168;6.840;2022-08-21T13:36:03;2.87;;;2.17;;
29954;SDS011;16812;51.168;6.840;2022-08-21T13:38:33;1.93;;;1.47;;
29954;SDS011;16812;51.168;6.840;2022-08-21T13:41:02;3.23;;;1.57;;
29954;SDS011;16812;51.168;6.840;2022-08-21T13:43:34;3.47;;;1.53;;
29954;SDS011;16812;51.168;6.840;2022-08-21T13:46:02;4.03;;;2.00;;
29954;SDS011;16812;51.168;6.840;2022-08-21T13:48:33;2.57;;;1.40;;
29954;SDS011;16812;51.168;6.840;2022-08-21T13:51:01;5.80;;;1.70;;
29954;SDS011;16812;51.168;6.840;2022-08-21T13:53:29;1.70;;;1.20;;
29954;SDS011;16812;51.168;6.840;2022-08-21T13:55:58;1.30;;;1.20;;
29954;SDS011;16812;51.168;6.840;2022-08-21T13:58:27;2.70;;;1.60;;
29954;SDS011;16812;51.168;6.840;2022-08-21T14:00:54;1.83;;;1.20;;
29954;SDS011;16812;51.168;6.840;2022-08-21T14:03:27;2.73;;;1.40;;
29954;SDS011;16812;51.168;6.840;2022-08-21T14:05:55;2.90;;;1.53;;
29954;SDS011;16812;51.168;6.840;2022-08-21T14:08:27;3.63;;;1.83;;
29954;SDS011;16812;51.168;6.840;2022-08-21T14:10:57;3.33;;;1.60;;
29954;SDS011;16812;51.168;6.840;2022-08-21T14:13:28;4.93;;;1.77;;
29954;SDS011;16812;51.168;6.840;2022-08-21T14:15:57;4.50;;;1.73;;
29954;SDS011;16812;51.168;6.840;2022-08-21T14:18:24;4.60;;;1.70;;
29954;SDS011;16812;51.168;6.840;2022-08-21T14:20:51;1.23;;;1.10;;
29954;SDS011;16812;51.168;6.840;2022-08-21T14:23:25;2.20;;;1.40;;
29954;SDS011;16812;51.168;6.840;2022-08-21T14:25:53;3.10;;;1.80;;
29954;SDS011;16812;51.168;6.840;2022-08-21T14:28:27;4.13;;;1.60;;
29954;SDS011;16812;51.168;6.840;2022-08-21T14:30:55;2.40;;;1.43;;
29954;SDS011;16812;51.168;6.840;2022-08-21T14:33:25;4.17;;;1.60;;
29954;SDS011;16812;51.168;6.840;2022-08-21T14:35:53;6.60;;;1.53;;
29954;SDS011;16812;51.168;6.840;2022-08-21T14:38:21;3.20;;;1.70;;
29954;SDS011;16812;51.168;6.840;2022-08-21T14:40:49;3.80;;;2.40;;
29954;SDS011;16812;51.168;6.840;2022-08-21T14:43:17;6.90;;;1.80;;
29954;SDS011;16812;51.168;6.840;2022-08-21T14:45:46;4.30;;;1.97;;
29954;SDS011;16812;51.168;6.840;2022-08-21T14:48:14;6.23;;;2.13;;